sensor_id;sensor_type;location;lat;lon;timestamp;pressure;altitude;pressure_sealevel;temperature;humidity
19884;BME280;10104;50.732;10.174;2024-01-25T00:00:04;98701.09;;;7.13;100.00
19884;BME280;10104;50.732;10.174;2024-01-25T00:02:45;98704.94;;;7.19;100.00
19884;BME280;10104;50.732;10.174;2024-01-25T00:05:25;98696.06;;;7.20;100.00
19884;BME280;10104;50.732;10.174;2024-01-25T00:08:05;98692.16;;;7.24;100.00
19884;BME280;10104;50.732;10.174;2024-01-25T00:10:46;98693.69;;;7.26;100.00
19884;BME280;10104;50.732;10.174;2024-01-25T00:13:26;98694.78;;;7.24;100.00
19884;BME280;10104;50.732;10.174;2024-01-25T00:16:07;98691.19;;;7.25;100.00
19884;BME280;10104;50.732;10.174;2024-01-25T00:18:47;98700.63;;;7.27;100.00
19884;BME280;10104;50.732;10.174;2024-01-25T00:21:28;98684.81;;;7.27;100.00
19884;BME280;10104;50.732;10.174;2024-01-25T00:24:08;98700.75;;;7.26;100.00
19884;BME280;10104;50.732;10.174;2024-01-25T00:26:49;98705.88;;;7.27;100.00
19884;BME280;10104;50.732;10.174;2024-01-25T00:29:30;98704.34;;;7.25;100.00
19884;BME280;10104;50.732;10.174;2024-01-25T00:32:11;98712.00;;;7.18;100.00
19884;BME280;10104;50.732;10.174;2024-01-25T00:34:51;98718.25;;;7.17;100.00
19884;BME280;10104;50.732;10.174;2024-01-25T00:37:32;98718.25;;;7.17;100.00
19884;BME280;10104;50.732;10.174;2024-01-25T00:40:12;98717.59;;;7.15;100.00
19884;BME280;10104;50.732;10.174;2024-01-25T00:42:53;98701.63;;;7.17;100.00
19884;BME280;10104;50.732;10.174;2024-01-25T00:45:34;98710.09;;;7.11;100.00
19884;BME280;10104;50.732;10.174;2024-01-25T00:48:15;98712.22;;;7.07;100.00
19884;BME280;10104;50.732;10.174;2024-01-25T00:50:56;98719.16;;;6.99;100.00
19884;BME280;10104;50.732;10.174;2024-01-25T00:53:36;98705.91;;;6.90;100.00
19884;BME280;10104;50.732;10.174;2024-01-25T00:56:17;98723.78;;;6.87;100.00
19884;BME280;10104;50.732;10.174;2024-01-25T00:58:57;98733.22;;;6.80;100.00
19884;BME280;10104;50.732;10.174;2024-01-25T01:01:38;98721.88;;;6.79;100.00
19884;BME280;10104;50.732;10.174;2024-01-25T01:04:21;98716.78;;;6.78;100.00
19884;BME280;10104;50.732;10.174;2024-01-25T01:07:02;98729.09;;;6.77;100.00
19884;BME280;10104;50.732;10.174;2024-01-25T01:09:43;98733.81;;;6.74;100.00
19884;BME280;10104;50.732;10.174;2024-01-25T01:12:24;98717.34;;;6.72;100.00
19884;BME280;10104;50.732;10.174;2024-01-25T01:15:04;98720.66;;;6.74;100.00
19884;BME280;10104;50.732;10.174;2024-01-25T01:17:45;98722.59;;;6.72;100.00
19884;BME280;10104;50.732;10.174;2024-01-25T01:20:25;98726.22;;;6.71;100.00
19884;BME280;10104;50.732;10.174;2024-01-25T01:23:05;98725.06;;;6.73;100.00
19884;BME280;10104;50.732;10.174;2024-01-25T01:25:46;98725.06;;;6.73;100.00
19884;BME280;10104;50.732;10.174;2024-01-25T01:28:26;98721.59;;;6.73;100.00
19884;BME280;10104;50.732;10.174;2024-01-25T01:31:07;98740.47;;;6.68;100.00
19884;BME280;10104;50.732;10.174;2024-01-25T01:33:47;98736.19;;;6.67;100.00
19884;BME280;10104;50.732;10.174;2024-01-25T01:36:27;98739.63;;;6.68;100.00
19884;BME280;10104;50.732;10.174;2024-01-25T01:39:08;98743.53;;;6.64;100.00
19884;BME280;10104;50.732;10.174;2024-01-25T01:41:48;98760.44;;;6.61;100.00
19884;BME280;10104;50.732;10.174;2024-01-25T01:44:29;98751.97;;;6.67;100.00
19884;BME280;10104;50.732;10.174;2024-01-25T01:47:09;98742.00;;;6.71;100.00
19884;BME280;10104;50.732;10.174;2024-01-25T01:49:49;98751.41;;;6.73;100.00
19884;BME280;10104;50.732;10.174;2024-01-25T01:52:31;98748.94;;;6.72;100.00
19884;BME280;10104;50.732;10.174;2024-01-25T01:55:11;98747.53;;;6.68;100.00
19884;BME280;10104;50.732;10.174;2024-01-25T01:57:52;98762.34;;;6.69;100.00
19884;BME280;10104;50.732;10.174;2024-01-25T02:00:33;98756.66;;;6.73;100.00
19884;BME280;10104;50.732;10.174;2024-01-25T02:03:14;98753.63;;;6.68;100.00
19884;BME280;10104;50.732;10.174;2024-01-25T02:05:54;98754.75;;;6.66;100.00
19884;BME280;10104;50.732;10.174;2024-01-25T02:08:35;98764.47;;;6.56;100.00
19884;BME280;10104;50.732;10.174;2024-01-25T02:11:15;98763.06;;;6.61;100.00
19884;BME280;10104;50.732;10.174;2024-01-25T02:13:56;98754.63;;;6.58;100.00
19884;BME280;10104;50.732;10.174;2024-01-25T02:16:36;98755.88;;;6.54;100.00
19884;BME280;10104;50.732;10.174;2024-01-25T02:19:17;98763.91;;;6.52;100.00
19884;BME280;10104;50.732;10.174;2024-01-25T02:21:58;98757.53;;;6.55;100.00
19884;BME280;10104;50.732;10.174;2024-01-25T02:24:39;98769.03;;;6.54;100.00
19884;BME280;10104;50.732;10.174;2024-01-25T02:27:19;98756.44;;;6.57;100.00
19884;BME280;10104;50.732;10.174;2024-01-25T02:30:00;98767.78;;;6.58;100.00
19884;BME280;10104;50.732;10.174;2024-01-25T02:32:42;98764.47;;;6.56;100.00
19884;BME280;10104;50.732;10.174;2024-01-25T02:35:23;98749.94;;;6.52;100.00
19884;BME280;10104;50.732;10.174;2024-01-25T02:38:03;98764.34;;;6.47;100.00
19884;BME280;10104;50.732;10.174;2024-01-25T02:40:44;98753.41;;;6.52;100.00
19884;BME280;10104;50.732;10.174;2024-01-25T02:43:24;98752.44;;;6.43;100.00
19884;BME280;10104;50.732;10.174;2024-01-25T02:46:04;98744.66;;;6.42;100.00
19884;BME280;10104;50.732;10.174;2024-01-25T02:48:44;98742.59;;;6.36;100.00
19884;BME280;10104;50.732;10.174;2024-01-25T02:51:25;98738.72;;;6.30;100.00
19884;BME280;10104;50.732;10.174;2024-01-25T02:54:05;98742.91;;;6.23;100.00
19884;BME280;10104;50.732;10.174;2024-01-25T02:56:45;98727.44;;;6.11;100.00
19884;BME280;10104;50.732;10.174;2024-01-25T02:59:25;98727.56;;;6.09;100.00
19884;BME280;10104;50.732;10.174;2024-01-25T03:02:06;98721.47;;;6.08;100.00
19884;BME280;10104;50.732;10.174;2024-01-25T03:04:46;98714.13;;;6.02;100.00
19884;BME280;10104;50.732;10.174;2024-01-25T03:07:26;98718.72;;;5.91;100.00
19884;BME280;10104;50.732;10.174;2024-01-25T03:10:07;98703.59;;;5.83;100.00
19884;BME280;10104;50.732;10.174;2024-01-25T03:12:48;98709.81;;;5.73;100.00
19884;BME280;10104;50.732;10.174;2024-01-25T03:15:30;98705.97;;;5.86;100.00
19884;BME280;10104;50.732;10.174;2024-01-25T03:18:10;98704.84;;;5.79;100.00
19884;BME280;10104;50.732;10.174;2024-01-25T03:20:51;98708.31;;;5.80;100.00
19884;BME280;10104;50.732;10.174;2024-01-25T03:23:31;98712.31;;;5.84;100.00
19884;BME280;10104;50.732;10.174;2024-01-25T03:26:11;98710.53;;;5.94;100.00
19884;BME280;10104;50.732;10.174;2024-01-25T03:28:51;98718.03;;;5.98;100.00
19884;BME280;10104;50.732;10.174;2024-01-25T03:31:32;98733.91;;;6.06;100.00
19884;BME280;10104;50.732;10.174;2024-01-25T03:34:12;98737.50;;;6.15;100.00
19884;BME280;10104;50.732;10.174;2024-01-25T03:36:53;98725.19;;;6.25;100.00
19884;BME280;10104;50.732;10.174;2024-01-25T03:39:34;98728.22;;;6.30;100.00
19884;BME280;10104;50.732;10.174;2024-01-25T03:42:14;98717.44;;;6.33;100.00
19884;BME280;10104;50.732;10.174;2024-01-25T03:44:54;98722.81;;;6.32;100.00
19884;BME280;10104;50.732;10.174;2024-01-25T03:47:35;98723.53;;;6.34;100.00
19884;BME280;10104;50.732;10.174;2024-01-25T03:50:15;98734.88;;;6.34;100.00
19884;BME280;10104;50.732;10.174;2024-01-25T03:52:56;98741.22;;;6.32;100.00
19884;BME280;10104;50.732;10.174;2024-01-25T03:55:36;98753.16;;;6.26;100.00
19884;BME280;10104;50.732;10.174;2024-01-25T03:58:17;98751.34;;;6.27;100.00
19884;BME280;10104;50.732;10.174;2024-01-25T04:00:58;98733.78;;;6.27;100.00
19884;BME280;10104;50.732;10.174;2024-01-25T04:03:38;98744.81;;;6.31;100.00
19884;BME280;10104;50.732;10.174;2024-01-25T04:06:19;98767.13;;;6.27;100.00
19884;BME280;10104;50.732;10.174;2024-01-25T04:09:00;98764.75;;;6.24;100.00
19884;BME280;10104;50.732;10.174;2024-01-25T04:11:40;98741.66;;;6.27;100.00
19884;BME280;10104;50.732;10.174;2024-01-25T04:14:20;98726.31;;;6.23;100.00
19884;BME280;10104;50.732;10.174;2024-01-25T04:17:00;98716.47;;;6.15;100.00
19884;BME280;10104;50.732;10.174;2024-01-25T04:19:41;98716.47;;;6.05;100.00
19884;BME280;10104;50.732;10.174;2024-01-25T04:22:21;98747.63;;;6.10;100.00
19884;BME280;10104;50.732;10.174;2024-01-25T04:25:03;98770.56;;;6.18;100.00
19884;BME280;10104;50.732;10.174;2024-01-25T04:27:43;98771.97;;;6.12;100.00
19884;BME280;10104;50.732;10.174;2024-01-25T04:30:23;98792.72;;;6.15;100.00
19884;BME280;10104;50.732;10.174;2024-01-25T04:33:04;98798.94;;;6.24;100.00
19884;BME280;10104;50.732;10.174;2024-01-25T04:35:44;98812.09;;;6.24;100.00
19884;BME280;10104;50.732;10.174;2024-01-25T04:38:25;98828.31;;;6.29;100.00
19884;BME280;10104;50.732;10.174;2024-01-25T04:41:06;98850.59;;;6.34;100.00
19884;BME280;10104;50.732;10.174;2024-01-25T04:43:46;98826.38;;;6.40;100.00
19884;BME280;10104;50.732;10.174;2024-01-25T04:46:27;98819.88;;;6.35;100.00
19884;BME280;10104;50.732;10.174;2024-01-25T04:49:07;98830.41;;;6.35;100.00
19884;BME280;10104;50.732;10.174;2024-01-25T04:51:48;98808.22;;;6.37;100.00
19884;BME280;10104;50.732;10.174;2024-01-25T04:54:30;98812.66;;;6.27;100.00
19884;BME280;10104;50.732;10.174;2024-01-25T04:57:10;98817.78;;;6.19;100.00
19884;BME280;10104;50.732;10.174;2024-01-25T04:59:50;98808.66;;;6.23;100.00
19884;BME280;10104;50.732;10.174;2024-01-25T05:02:31;98817.91;;;6.18;100.00
19884;BME280;10104;50.732;10.174;2024-01-25T05:05:11;98834.97;;;6.23;100.00
19884;BME280;10104;50.732;10.174;2024-01-25T05:07:51;98828.03;;;6.22;100.00
19884;BME280;10104;50.732;10.174;2024-01-25T05:10:32;98822.91;;;6.30;100.00
19884;BME280;10104;50.732;10.174;2024-01-25T05:13:12;98832.56;;;6.30;100.00
19884;BME280;10104;50.732;10.174;2024-01-25T05:15:52;98850.44;;;6.26;100.00
19884;BME280;10104;50.732;10.174;2024-01-25T05:18:32;98854.88;;;6.26;100.00
19884;BME280;10104;50.732;10.174;2024-01-25T05:21:13;98856.66;;;6.25;100.00
19884;BME280;10104;50.732;10.174;2024-01-25T05:23:53;98850.75;;;6.23;100.00
19884;BME280;10104;50.732;10.174;2024-01-25T05:26:33;98856.25;;;6.20;100.00
19884;BME280;10104;50.732;10.174;2024-01-25T05:29:13;98856.94;;;6.13;100.00
19884;BME280;10104;50.732;10.174;2024-01-25T05:31:54;98860.53;;;6.12;100.00
19884;BME280;10104;50.732;10.174;2024-01-25T05:34:34;98859.31;;;6.16;100.00
19884;BME280;10104;50.732;10.174;2024-01-25T05:37:14;98858.47;;;6.15;100.00
19884;BME280;10104;50.732;10.174;2024-01-25T05:39:55;98864.56;;;6.16;100.00
19884;BME280;10104;50.732;10.174;2024-01-25T05:42:36;98864.28;;;6.19;100.00
19884;BME280;10104;50.732;10.174;2024-01-25T05:45:16;98873.53;;;6.13;100.00
19884;BME280;10104;50.732;10.174;2024-01-25T05:47:59;98878.94;;;6.12;100.00
19884;BME280;10104;50.732;10.174;2024-01-25T05:50:39;98882.25;;;6.14;100.00
19884;BME280;10104;50.732;10.174;2024-01-25T05:53:19;98889.06;;;6.16;100.00
19884;BME280;10104;50.732;10.174;2024-01-25T05:56:01;98890.16;;;6.14;100.00
19884;BME280;10104;50.732;10.174;2024-01-25T05:58:43;98890.03;;;6.15;100.00
19884;BME280;10104;50.732;10.174;2024-01-25T06:01:24;98892.66;;;6.15;100.00
19884;BME280;10104;50.732;10.174;2024-01-25T06:04:05;98904.53;;;6.09;100.00
19884;BME280;10104;50.732;10.174;2024-01-25T06:06:45;98903.41;;;6.12;100.00
19884;BME280;10104;50.732;10.174;2024-01-25T06:09:26;98904.25;;;6.03;100.00
19884;BME280;10104;50.732;10.174;2024-01-25T06:12:07;98905.09;;;6.03;100.00
19884;BME280;10104;50.732;10.174;2024-01-25T06:14:47;98914.75;;;6.03;100.00
19884;BME280;10104;50.732;10.174;2024-01-25T06:17:27;98919.06;;;6.04;100.00
19884;BME280;10104;50.732;10.174;2024-01-25T06:20:08;98930.00;;;6.09;100.00
19884;BME280;10104;50.732;10.174;2024-01-25T06:22:50;98935.81;;;6.13;100.00
19884;BME280;10104;50.732;10.174;2024-01-25T06:25:31;98940.81;;;6.16;100.00
19884;BME280;10104;50.732;10.174;2024-01-25T06:28:12;98930.84;;;6.19;100.00
19884;BME280;10104;50.732;10.174;2024-01-25T06:30:52;98927.50;;;6.07;100.00
19884;BME280;10104;50.732;10.174;2024-01-25T06:33:32;98922.94;;;6.09;100.00
19884;BME280;10104;50.732;10.174;2024-01-25T06:36:13;98928.59;;;6.05;100.00
19884;BME280;10104;50.732;10.174;2024-01-25T06:38:56;98935.91;;;6.01;100.00
19884;BME280;10104;50.732;10.174;2024-01-25T06:41:36;98950.72;;;6.02;100.00
19884;BME280;10104;50.732;10.174;2024-01-25T06:44:17;98954.59;;;5.98;100.00
19884;BME280;10104;50.732;10.174;2024-01-25T06:46:57;98970.63;;;5.95;100.00
19884;BME280;10104;50.732;10.174;2024-01-25T06:49:37;98971.41;;;5.86;100.00
19884;BME280;10104;50.732;10.174;2024-01-25T06:52:18;98963.53;;;5.86;100.00
19884;BME280;10104;50.732;10.174;2024-01-25T06:54:59;98970.56;;;5.86;100.00
19884;BME280;10104;50.732;10.174;2024-01-25T06:57:39;98976.41;;;5.89;100.00
19884;BME280;10104;50.732;10.174;2024-01-25T07:00:20;98979.78;;;5.80;100.00
19884;BME280;10104;50.732;10.174;2024-01-25T07:03:01;98989.19;;;5.73;100.00
19884;BME280;10104;50.732;10.174;2024-01-25T07:05:42;98978.69;;;5.83;100.00
19884;BME280;10104;50.732;10.174;2024-01-25T07:08:23;98973.72;;;5.80;100.00
19884;BME280;10104;50.732;10.174;2024-01-25T07:11:04;98977.56;;;5.76;100.00
19884;BME280;10104;50.732;10.174;2024-01-25T07:13:44;98984.28;;;5.68;100.00
19884;BME280;10104;50.732;10.174;2024-01-25T07:16:24;98987.31;;;5.64;100.00
19884;BME280;10104;50.732;10.174;2024-01-25T07:19:05;98986.59;;;5.62;100.00
19884;BME280;10104;50.732;10.174;2024-01-25T07:21:45;98984.16;;;5.49;100.00
19884;BME280;10104;50.732;10.174;2024-01-25T07:24:26;98987.28;;;5.54;100.00
19884;BME280;10104;50.732;10.174;2024-01-25T07:27:07;98990.53;;;5.47;100.00
19884;BME280;10104;50.732;10.174;2024-01-25T07:29:46;98988.16;;;5.44;100.00
19884;BME280;10104;50.732;10.174;2024-01-25T07:32:27;98986.31;;;5.55;100.00
19884;BME280;10104;50.732;10.174;2024-01-25T07:35:10;99000.72;;;5.61;100.00
19884;BME280;10104;50.732;10.174;2024-01-25T07:37:52;98998.53;;;5.66;100.00
19884;BME280;10104;50.732;10.174;2024-01-25T07:40:32;99000.31;;;5.65;100.00
19884;BME280;10104;50.732;10.174;2024-01-25T07:43:12;98999.22;;;5.68;100.00
19884;BME280;10104;50.732;10.174;2024-01-25T07:45:53;99007.38;;;5.65;100.00
19884;BME280;10104;50.732;10.174;2024-01-25T07:48:34;99008.09;;;5.67;100.00
19884;BME280;10104;50.732;10.174;2024-01-25T07:51:14;99015.81;;;5.68;100.00
19884;BME280;10104;50.732;10.174;2024-01-25T07:53:55;99018.59;;;5.67;100.00
19884;BME280;10104;50.732;10.174;2024-01-25T07:56:35;99021.38;;;5.75;100.00
19884;BME280;10104;50.732;10.174;2024-01-25T07:59:15;99020.94;;;5.70;100.00
19884;BME280;10104;50.732;10.174;2024-01-25T08:01:55;99023.34;;;5.73;100.00
19884;BME280;10104;50.732;10.174;2024-01-25T08:04:35;99018.41;;;5.80;100.00
19884;BME280;10104;50.732;10.174;2024-01-25T08:07:16;99021.81;;;5.80;100.00
19884;BME280;10104;50.732;10.174;2024-01-25T08:09:56;99018.72;;;5.86;100.00
19884;BME280;10104;50.732;10.174;2024-01-25T08:12:38;99022.06;;;5.88;100.00
19884;BME280;10104;50.732;10.174;2024-01-25T08:15:27;99027.41;;;5.87;100.00
19884;BME280;10104;50.732;10.174;2024-01-25T08:18:07;99034.28;;;5.99;100.00
19884;BME280;10104;50.732;10.174;2024-01-25T08:20:47;99031.41;;;6.02;100.00
19884;BME280;10104;50.732;10.174;2024-01-25T08:23:28;99040.69;;;6.06;100.00
19884;BME280;10104;50.732;10.174;2024-01-25T08:26:08;99038.19;;;6.04;100.00
19884;BME280;10104;50.732;10.174;2024-01-25T08:28:52;99037.69;;;6.11;100.00
19884;BME280;10104;50.732;10.174;2024-01-25T08:31:33;99041.28;;;6.19;100.00
19884;BME280;10104;50.732;10.174;2024-01-25T08:34:14;99044.63;;;6.21;100.00
19884;BME280;10104;50.732;10.174;2024-01-25T08:36:55;99042.44;;;6.26;100.00
19884;BME280;10104;50.732;10.174;2024-01-25T08:39:35;99034.63;;;6.15;100.00
19884;BME280;10104;50.732;10.174;2024-01-25T08:42:17;99039.25;;;6.23;100.00
19884;BME280;10104;50.732;10.174;2024-01-25T08:44:57;99046.84;;;6.26;100.00
19884;BME280;10104;50.732;10.174;2024-01-25T08:47:37;99054.41;;;6.40;100.00
19884;BME280;10104;50.732;10.174;2024-01-25T08:50:18;99056.91;;;6.41;100.00
19884;BME280;10104;50.732;10.174;2024-01-25T08:52:59;99063.84;;;6.52;100.00
19884;BME280;10104;50.732;10.174;2024-01-25T08:55:40;99061.53;;;6.59;100.00
19884;BME280;10104;50.732;10.174;2024-01-25T08:58:21;99067.09;;;6.75;100.00
19884;BME280;10104;50.732;10.174;2024-01-25T09:01:01;99074.44;;;6.71;99.90
19884;BME280;10104;50.732;10.174;2024-01-25T09:03:42;99068.59;;;6.68;99.94
19884;BME280;10104;50.732;10.174;2024-01-25T09:06:22;99081.22;;;6.64;100.00
19884;BME280;10104;50.732;10.174;2024-01-25T09:09:03;99089.59;;;6.48;100.00
19884;BME280;10104;50.732;10.174;2024-01-25T09:11:43;99092.69;;;6.54;100.00
19884;BME280;10104;50.732;10.174;2024-01-25T09:14:24;99095.00;;;6.47;100.00
19884;BME280;10104;50.732;10.174;2024-01-25T09:17:04;99093.44;;;6.44;100.00
19884;BME280;10104;50.732;10.174;2024-01-25T09:19:45;99093.97;;;6.38;100.00
19884;BME280;10104;50.732;10.174;2024-01-25T09:22:25;99098.28;;;6.39;100.00
19884;BME280;10104;50.732;10.174;2024-01-25T09:25:06;99099.66;;;6.34;100.00
19884;BME280;10104;50.732;10.174;2024-01-25T09:27:49;99110.03;;;6.35;100.00
19884;BME280;10104;50.732;10.174;2024-01-25T09:30:29;99096.72;;;6.37;100.00
19884;BME280;10104;50.732;10.174;2024-01-25T09:33:10;99102.19;;;6.45;100.00
19884;BME280;10104;50.732;10.174;2024-01-25T09:35:50;99103.44;;;6.50;100.00
19884;BME280;10104;50.732;10.174;2024-01-25T09:38:31;99101.34;;;6.44;100.00
19884;BME280;10104;50.732;10.174;2024-01-25T09:41:14;99111.78;;;6.56;100.00
19884;BME280;10104;50.732;10.174;2024-01-25T09:43:54;99102.66;;;6.60;99.14
19884;BME280;10104;50.732;10.174;2024-01-25T09:46:34;99116.69;;;6.70;98.84
19884;BME280;10104;50.732;10.174;2024-01-25T09:49:15;99114.75;;;6.72;99.80
19884;BME280;10104;50.732;10.174;2024-01-25T09:51:55;99116.81;;;6.68;98.13
19884;BME280;10104;50.732;10.174;2024-01-25T09:54:36;99119.22;;;6.81;97.60
19884;BME280;10104;50.732;10.174;2024-01-25T09:57:21;99124.66;;;6.99;98.33
19884;BME280;10104;50.732;10.174;2024-01-25T10:00:03;99129.41;;;7.24;97.23
19884;BME280;10104;50.732;10.174;2024-01-25T10:02:43;99121.66;;;7.42;96.40
19884;BME280;10104;50.732;10.174;2024-01-25T10:05:24;99114.06;;;7.58;96.70
19884;BME280;10104;50.732;10.174;2024-01-25T10:08:12;99111.94;;;7.90;94.66
19884;BME280;10104;50.732;10.174;2024-01-25T10:10:53;99129.16;;;7.94;94.36
19884;BME280;10104;50.732;10.174;2024-01-25T10:14:00;99128.59;;;7.71;91.53
19884;BME280;10104;50.732;10.174;2024-01-25T10:16:41;99126.53;;;7.65;91.52
19884;BME280;10104;50.732;10.174;2024-01-25T10:19:21;99133.47;;;7.57;93.24
19884;BME280;10104;50.732;10.174;2024-01-25T10:22:06;99126.25;;;7.49;94.77
19884;BME280;10104;50.732;10.174;2024-01-25T10:24:47;99123.38;;;7.52;93.25
19884;BME280;10104;50.732;10.174;2024-01-25T10:27:30;99121.97;;;7.58;95.11
19884;BME280;10104;50.732;10.174;2024-01-25T10:30:12;99122.50;;;7.42;94.43
19884;BME280;10104;50.732;10.174;2024-01-25T10:32:54;99119.88;;;7.42;93.41
19884;BME280;10104;50.732;10.174;2024-01-25T10:35:36;99120.44;;;7.36;93.26
19884;BME280;10104;50.732;10.174;2024-01-25T10:38:17;99113.22;;;7.38;91.24
19884;BME280;10104;50.732;10.174;2024-01-25T10:41:00;99117.38;;;7.41;92.61
19884;BME280;10104;50.732;10.174;2024-01-25T10:43:41;99111.13;;;7.42;91.53
19884;BME280;10104;50.732;10.174;2024-01-25T10:46:22;99110.44;;;7.49;89.90
19884;BME280;10104;50.732;10.174;2024-01-25T10:49:03;99113.91;;;7.50;90.90
19884;BME280;10104;50.732;10.174;2024-01-25T10:51:44;99114.06;;;7.58;91.46
19884;BME280;10104;50.732;10.174;2024-01-25T10:54:26;99116.69;;;7.77;91.28
19884;BME280;10104;50.732;10.174;2024-01-25T10:57:06;99115.97;;;7.85;91.04
19884;BME280;10104;50.732;10.174;2024-01-25T10:59:48;99120.84;;;7.89;88.07
19884;BME280;10104;50.732;10.174;2024-01-25T11:02:29;99134.59;;;7.83;87.63
19884;BME280;10104;50.732;10.174;2024-01-25T11:05:11;99125.56;;;7.95;87.08
19884;BME280;10104;50.732;10.174;2024-01-25T11:07:52;99116.53;;;7.79;89.75
19884;BME280;10104;50.732;10.174;2024-01-25T11:10:35;99129.03;;;7.57;89.07
19884;BME280;10104;50.732;10.174;2024-01-25T11:13:16;99137.22;;;7.73;89.48
19884;BME280;10104;50.732;10.174;2024-01-25T11:15:56;99131.69;;;7.57;86.36
19884;BME280;10104;50.732;10.174;2024-01-25T11:18:49;99126.97;;;7.70;88.68
19884;BME280;10104;50.732;10.174;2024-01-25T11:21:46;99130.72;;;7.78;88.21
19884;BME280;10104;50.732;10.174;2024-01-25T11:24:27;99120.03;;;7.69;86.52
19884;BME280;10104;50.732;10.174;2024-01-25T11:27:09;99118.22;;;7.80;88.25
19884;BME280;10104;50.732;10.174;2024-01-25T11:29:50;99114.03;;;7.87;87.66
19884;BME280;10104;50.732;10.174;2024-01-25T11:32:30;99109.75;;;7.95;88.63
19884;BME280;10104;50.732;10.174;2024-01-25T11:35:10;99119.31;;;7.87;89.27
19884;BME280;10104;50.732;10.174;2024-01-25T11:37:54;99110.69;;;7.85;85.84
19884;BME280;10104;50.732;10.174;2024-01-25T11:40:34;99107.13;;;7.76;89.09
19884;BME280;10104;50.732;10.174;2024-01-25T11:43:17;99108.66;;;7.69;87.96
19884;BME280;10104;50.732;10.174;2024-01-25T11:45:57;99111.69;;;7.55;90.22
19884;BME280;10104;50.732;10.174;2024-01-25T11:48:41;99097.00;;;7.43;90.71
19884;BME280;10104;50.732;10.174;2024-01-25T11:51:22;99098.25;;;7.48;90.32
19884;BME280;10104;50.732;10.174;2024-01-25T11:54:02;99102.25;;;7.43;89.58
19884;BME280;10104;50.732;10.174;2024-01-25T11:56:47;99106.56;;;7.34;89.91
19884;BME280;10104;50.732;10.174;2024-01-25T11:59:28;99113.50;;;7.54;92.04
19884;BME280;10104;50.732;10.174;2024-01-25T12:02:08;99110.84;;;7.54;90.94
19884;BME280;10104;50.732;10.174;2024-01-25T12:04:49;99106.44;;;7.55;89.74
19884;BME280;10104;50.732;10.174;2024-01-25T12:07:30;99112.41;;;7.57;92.25
19884;BME280;10104;50.732;10.174;2024-01-25T12:10:16;99108.38;;;7.62;93.80
19884;BME280;10104;50.732;10.174;2024-01-25T12:12:58;99102.69;;;7.57;93.02
19884;BME280;10104;50.732;10.174;2024-01-25T12:15:38;99092.13;;;7.48;91.14
19884;BME280;10104;50.732;10.174;2024-01-25T12:18:18;99092.16;;;7.38;92.60
19884;BME280;10104;50.732;10.174;2024-01-25T12:21:00;99093.38;;;7.24;90.11
19884;BME280;10104;50.732;10.174;2024-01-25T12:23:41;99089.78;;;7.25;92.71
19884;BME280;10104;50.732;10.174;2024-01-25T12:26:23;99093.63;;;7.12;91.66
19884;BME280;10104;50.732;10.174;2024-01-25T12:29:03;99077.56;;;7.24;95.07
19884;BME280;10104;50.732;10.174;2024-01-25T12:31:45;99079.53;;;7.32;94.53
19884;BME280;10104;50.732;10.174;2024-01-25T12:34:25;99080.91;;;7.26;92.88
19884;BME280;10104;50.732;10.174;2024-01-25T12:37:06;99081.03;;;7.35;92.18
19884;BME280;10104;50.732;10.174;2024-01-25T12:39:47;99072.72;;;7.49;90.93
19884;BME280;10104;50.732;10.174;2024-01-25T12:42:27;99066.88;;;7.55;90.01
19884;BME280;10104;50.732;10.174;2024-01-25T12:45:08;99060.63;;;7.65;91.29
19884;BME280;10104;50.732;10.174;2024-01-25T12:47:49;99059.97;;;7.63;89.49
19884;BME280;10104;50.732;10.174;2024-01-25T12:50:29;99061.16;;;7.79;91.88
19884;BME280;10104;50.732;10.174;2024-01-25T12:53:11;99055.47;;;7.93;86.05
19884;BME280;10104;50.732;10.174;2024-01-25T12:55:51;99045.50;;;8.24;85.54
19884;BME280;10104;50.732;10.174;2024-01-25T12:58:32;99040.84;;;8.08;84.36
19884;BME280;10104;50.732;10.174;2024-01-25T13:01:12;99040.09;;;8.25;87.36
19884;BME280;10104;50.732;10.174;2024-01-25T13:03:55;99033.47;;;8.11;85.89
19884;BME280;10104;50.732;10.174;2024-01-25T13:06:36;99046.31;;;7.87;86.10
19884;BME280;10104;50.732;10.174;2024-01-25T13:09:16;99042.75;;;7.59;87.62
19884;BME280;10104;50.732;10.174;2024-01-25T13:11:57;99047.34;;;7.57;89.24
19884;BME280;10104;50.732;10.174;2024-01-25T13:14:37;99049.16;;;7.57;89.11
19884;BME280;10104;50.732;10.174;2024-01-25T13:17:17;99050.50;;;7.61;89.17
19884;BME280;10104;50.732;10.174;2024-01-25T13:19:57;99044.31;;;7.52;91.01
19884;BME280;10104;50.732;10.174;2024-01-25T13:22:37;99034.59;;;7.43;90.28
19884;BME280;10104;50.732;10.174;2024-01-25T13:25:18;99036.69;;;7.40;91.05
19884;BME280;10104;50.732;10.174;2024-01-25T13:27:58;99040.25;;;7.48;87.94
19884;BME280;10104;50.732;10.174;2024-01-25T13:30:39;99042.06;;;7.57;88.95
19884;BME280;10104;50.732;10.174;2024-01-25T13:33:19;99025.56;;;7.55;87.09
19884;BME280;10104;50.732;10.174;2024-01-25T13:36:00;99024.59;;;7.56;89.46
19884;BME280;10104;50.732;10.174;2024-01-25T13:38:40;99020.56;;;7.62;89.71
19884;BME280;10104;50.732;10.174;2024-01-25T13:41:21;99031.41;;;7.59;87.51
19884;BME280;10104;50.732;10.174;2024-01-25T13:44:01;99027.66;;;7.52;85.58
19884;BME280;10104;50.732;10.174;2024-01-25T13:46:42;99020.44;;;7.44;85.98
19884;BME280;10104;50.732;10.174;2024-01-25T13:49:22;99022.13;;;7.45;89.33
19884;BME280;10104;50.732;10.174;2024-01-25T13:52:03;99027.78;;;7.50;91.03
19884;BME280;10104;50.732;10.174;2024-01-25T13:54:43;99023.50;;;7.40;87.32
19884;BME280;10104;50.732;10.174;2024-01-25T13:57:23;99015.16;;;7.35;89.99
19884;BME280;10104;50.732;10.174;2024-01-25T14:00:04;99013.66;;;7.32;87.15
19884;BME280;10104;50.732;10.174;2024-01-25T14:02:44;99010.91;;;7.34;90.22